Airfield :
LOGIN :

Register | Disclaimer

   EN    FR    IT 

 










Legend :    VFR   Marginal VFR   IFR   Intensive IFR   Very Intensive IFR
Visi :
Ceiling :
>= 8 km
>= 3000ft
5 to 8 km
1000 to 3000 ft
1500m to 5 km
500 to 1000 ft
800 to 1500m
200 to 500 ft
< 800m
< 200 ft
Symbols :   Thunderstorms  Fog  Heavy snow  Heavy precipitations  Wind > 20 kt
SIGMETs :     Misc.  Thunderstorms  Icing  Turbulence  Mountain Waves  Volcanic Ashes







- Airport Elevation : 265 ft


ETSH - Holzdorf AB

CURRENT METAR :
  • 270520Z 30007KT 9999 SCT020 16/12 Q1024 BLU+BLU+ TEMPO GRN

EXPIRED METARs :
  • 270434Z 31007KT 9999 BKN017 16/12 Q1024 WHT BLU+ TEMPO GRN
  • 270420Z 31007KT 9999 SCT017 16/12 Q1024 BLU+BLU+ TEMPO GRN
  • 270414Z 31009KT 9999 SCT016 16/12 Q1024 BLU+BLU+ TEMPO GRN
  • 270320Z 30008KT 9999 BKN016 16/13 Q1023 WHT WHT TEMPO GRN
  • 270302Z 30007KT 9999 BKN016 16/13 Q1023 WHT

TAF TAF ETSH
Valid from the 27 at 05:00 until the 27 at 14:00 UTC


270415Z 2705/2714 31012G22KT 9999 NSW SCT020
TEMPO 2705/2709 30010KT 9999 NSW BKN012
No reported NOTAMs for that airfield.



MET'MAP, your aeronautical weather chart ! - Copyright ORBIFLY December 2007 - Disclaimer

ORBIFLY MET'MAP TEAM :

Programming & Development : Alexandra Zaïnal
Concept & Development : Baudouin d'Aumeries
Co-Development & Prog : Marc-Olivier Méhu
Technical & hardware support : Manuel Goepfert

Contact : metmap@orbifly.com




SOURCES & CREDITS :

   NOAA